Time;durP1;ratioP1;P1;durP2;ratioP2;P2;SDS_P1;SDS_P2;PMS_P1;PMS_P2;Temp;Humidity;BMP_temperature;BMP_pressure;BME280_temperature;BME280_humidity;BME280_pressure;Samples;Min_cycle;Max_cycle;Signal;HPM_P1;HPM_P2
2023/06/11 00:00:29;;;;;;;10.27;9.30;;;18.40;61.70;;;;;;5025643;28;114128;-77
2023/06/11 00:02:57;;;;;;;9.57;8.55;;;18.20;61.60;;;;;;5026110;28;115039;-77
2023/06/11 00:05:25;;;;;;;9.00;8.10;;;18.20;62.00;;;;;;5025981;28;114605;-77
2023/06/11 00:07:52;;;;;;;8.60;7.80;;;18.30;61.90;;;;;;5016215;28;115568;-77
2023/06/11 00:10:27;;;;;;;8.88;7.97;;;18.40;61.80;;;;;;4989054;28;114664;-77
2023/06/11 00:12:54;;;;;;;9.07;8.18;;;18.50;61.60;;;;;;5004234;28;114832;-77
2023/06/11 00:15:21;;;;;;;9.50;7.80;;;18.50;61.60;;;;;;5005896;28;114613;-78
2023/06/11 00:17:51;;;;;;;9.52;7.78;;;18.50;61.50;;;;;;5004740;28;114475;-78
2023/06/11 00:20:20;;;;;;;9.60;7.57;;;18.50;61.40;;;;;;5005665;28;114520;-77
2023/06/11 00:22:48;;;;;;;10.73;9.55;;;18.50;61.40;;;;;;5004217;28;117135;-77
2023/06/11 00:25:18;;;;;;;10.40;9.18;;;18.50;61.20;;;;;;5005369;28;115813;-79
2023/06/11 00:27:47;;;;;;;9.68;8.68;;;18.30;61.50;;;;;;5005653;28;114412;-78
2023/06/11 00:30:16;;;;;;;8.15;7.32;;;18.30;61.90;;;;;;5006690;28;114210;-78
2023/06/11 00:32:45;;;;;;;13.90;9.35;;;18.30;62.20;;;;;;5009922;28;115229;-78
2023/06/11 00:35:12;;;;;;;9.43;8.43;;;18.30;62.00;;;;;;5007203;28;114645;-77
2023/06/11 00:37:40;;;;;;;8.45;7.65;;;18.40;61.70;;;;;;5006482;28;114252;-77
2023/06/11 00:40:08;;;;;;;8.52;7.63;;;18.30;61.80;;;;;;5007204;28;114628;-77
2023/06/11 00:42:36;;;;;;;9.38;8.48;;;18.30;62.00;;;;;;5005730;28;114858;-78
2023/06/11 00:45:05;;;;;;;10.18;8.85;;;18.30;62.10;;;;;;5004473;28;114619;-78
2023/06/11 00:47:35;;;;;;;10.38;8.32;;;18.30;62.00;;;;;;5006005;28;114791;-78
2023/06/11 00:50:03;;;;;;;9.27;8.38;;;18.30;61.90;;;;;;5004768;28;114405;-78
2023/06/11 00:52:31;;;;;;;10.32;9.27;;;18.30;61.90;;;;;;4987494;28;115983;-78
2023/06/11 00:54:58;;;;;;;9.45;8.50;;;18.30;62.00;;;;;;4990549;28;114634;-77
2023/06/11 00:57:26;;;;;;;10.52;9.30;;;18.30;62.10;;;;;;5008289;28;114705;-77
2023/06/11 00:59:54;;;;;;;10.48;9.30;;;18.40;62.00;;;;;;4992197;28;114489;-77
2023/06/11 01:02:33;;;;;;;9.48;8.38;;;18.40;61.80;;;;;;5010370;28;116222;-78
2023/06/11 01:05:01;;;;;;;10.93;9.30;;;18.30;62.20;;;;;;5010210;28;115939;-77
2023/06/11 01:07:32;;;;;;;8.98;8.07;;;18.20;62.20;;;;;;4991579;28;114441;-78
2023/06/11 01:10:03;;;;;;;9.50;8.52;;;18.30;62.30;;;;;;4992319;28;114414;-77
2023/06/11 01:12:34;;;;;;;10.52;9.52;;;18.30;62.20;;;;;;5008581;28;114747;-77
2023/06/11 01:15:01;;;;;;;9.45;8.07;;;18.30;61.90;;;;;;5008016;28;114611;-77
2023/06/11 01:17:40;;;;;;;10.15;9.15;;;18.20;62.40;;;;;;5007681;28;114461;-77
2023/06/11 01:20:14;;;;;;;10.13;9.13;;;18.10;62.40;;;;;;4992158;28;114247;-78
2023/06/11 01:22:51;;;;;;;10.85;9.82;;;18.10;62.60;;;;;;4987861;28;115201;-77
2023/06/11 01:25:58;;;;;;;11.32;9.88;;;17.90;62.70;;;;;;5006765;28;119229;-77
2023/06/11 01:28:28;;;;;;;10.52;9.43;;;17.80;63.00;;;;;;4978223;28;114436;-78
2023/06/11 01:30:57;;;;;;;10.55;9.45;;;17.60;63.50;;;;;;4975367;28;114567;-78
2023/06/11 01:33:26;;;;;;;11.00;9.90;;;17.60;63.80;;;;;;5003555;28;115036;-78
2023/06/11 01:35:58;;;;;;;9.13;8.25;;;17.50;63.90;;;;;;4990242;28;115111;-78
2023/06/11 01:38:34;;;;;;;13.27;11.25;;;17.50;64.20;;;;;;5006050;28;114235;-78
2023/06/11 01:41:02;;;;;;;11.85;10.73;;;17.40;64.00;;;;;;4991853;28;114416;-78
2023/06/11 01:43:29;;;;;;;11.98;10.27;;;17.30;64.30;;;;;;5006034;28;115614;-78
2023/06/11 01:45:58;;;;;;;10.00;9.00;;;17.30;64.40;;;;;;5006252;28;114829;-78
2023/06/11 01:48:25;;;;;;;10.05;9.05;;;17.30;64.60;;;;;;5007293;28;114276;-78
2023/06/11 01:50:52;;;;;;;12.55;10.57;;;17.30;64.80;;;;;;5007631;28;114246;-78
2023/06/11 01:53:20;;;;;;;10.98;9.88;;;17.40;64.40;;;;;;4989167;28;114914;-78
2023/06/11 01:55:47;;;;;;;10.95;9.95;;;17.30;64.50;;;;;;5006653;28;114806;-79
2023/06/11 01:58:16;;;;;;;11.82;10.73;;;17.30;64.70;;;;;;4990866;28;114371;-78
2023/06/11 02:00:43;;;;;;;13.02;11.73;;;17.30;64.70;;;;;;5007042;28;114318;-78
2023/06/11 02:03:11;;;;;;;13.82;11.88;;;17.20;64.60;;;;;;5006057;28;115020;-79
2023/06/11 02:05:39;;;;;;;12.02;10.82;;;17.20;64.90;;;;;;5005777;28;114926;-78
2023/06/11 02:08:06;;;;;;;14.23;12.82;;;17.10;65.10;;;;;;5007473;28;114589;-78
2023/06/11 02:10:33;;;;;;;12.27;11.02;;;17.20;64.90;;;;;;5008202;28;114582;-79
2023/06/11 02:13:00;;;;;;;12.02;10.82;;;17.20;65.00;;;;;;5006134;28;115512;-78
2023/06/11 02:15:27;;;;;;;13.32;12.02;;;17.20;65.00;;;;;;4989423;28;114740;-78
2023/06/11 02:17:56;;;;;;;11.35;10.25;;;17.20;64.90;;;;;;5006963;28;114501;-78
2023/06/11 02:20:24;;;;;;;11.88;10.38;;;17.20;65.00;;;;;;5006473;28;114497;-77
2023/06/11 02:22:51;;;;;;;10.63;9.32;;;17.30;64.80;;;;;;4989409;28;115087;-77
2023/06/11 02:25:19;;;;;;;14.52;11.05;;;17.40;64.80;;;;;;5006158;28;114648;-78
2023/06/11 02:27:49;;;;;;;12.25;11.10;;;17.50;64.50;;;;;;5006914;28;114371;-77
2023/06/11 02:30:16;;;;;;;10.90;9.80;;;17.60;64.00;;;;;;5008045;28;114227;-78
2023/06/11 02:32:44;;;;;;;12.57;11.27;;;17.50;64.10;;;;;;5014217;28;114897;-77
2023/06/11 02:35:11;;;;;;;13.18;11.88;;;17.60;64.30;;;;;;4989995;28;114672;-77
2023/06/11 02:37:40;;;;;;;13.55;10.85;;;17.60;63.90;;;;;;5008449;28;114338;-77
2023/06/11 02:40:08;;;;;;;10.45;9.45;;;17.60;63.70;;;;;;5007268;28;114129;-77
2023/06/11 02:42:36;;;;;;;12.32;10.93;;;17.50;64.10;;;;;;5005715;28;116122;-77
2023/06/11 02:45:05;;;;;;;10.85;9.75;;;17.50;64.00;;;;;;5014609;28;114722;-78
2023/06/11 02:47:32;;;;;;;14.13;12.80;;;17.50;64.10;;;;;;5008235;28;114364;-78
2023/06/11 02:49:59;;;;;;;11.98;10.40;;;17.30;64.20;;;;;;5006390;28;116660;-78
2023/06/11 02:52:27;;;;;;;12.07;10.88;;;17.30;64.70;;;;;;5006248;28;114933;-78
2023/06/11 02:54:54;;;;;;;11.23;10.13;;;17.20;64.90;;;;;;5006042;28;116301;-78
2023/06/11 02:57:21;;;;;;;12.07;10.98;;;17.20;64.90;;;;;;5006226;28;114295;-78
2023/06/11 02:59:48;;;;;;;13.35;11.98;;;17.30;64.90;;;;;;5006085;28;116632;-78
2023/06/11 03:02:16;;;;;;;11.65;10.45;;;17.30;64.70;;;;;;4989423;28;118699;-77
2023/06/11 03:04:43;;;;;;;12.68;11.45;;;17.30;64.70;;;;;;4988862;28;114717;-77
2023/06/11 03:07:10;;;;;;;13.55;12.18;;;17.40;64.60;;;;;;4989404;28;114465;-77
2023/06/11 03:09:38;;;;;;;13.90;12.60;;;17.50;64.40;;;;;;5003606;28;117791;-78
2023/06/11 03:12:06;;;;;;;12.73;11.52;;;17.40;64.40;;;;;;5008736;28;115108;-77
2023/06/11 03:14:34;;;;;;;14.10;12.80;;;17.40;64.50;;;;;;4991717;28;115193;-76
2023/06/11 03:17:02;;;;;;;15.25;13.65;;;17.40;64.50;;;;;;5008275;28;114652;-76
2023/06/11 03:19:29;;;;;;;13.77;12.40;;;17.40;64.50;;;;;;5027772;28;114350;-76
2023/06/11 03:21:56;;;;;;;13.73;12.43;;;17.30;64.80;;;;;;5024997;28;118366;-76
2023/06/11 03:24:24;;;;;;;15.45;14.05;;;17.20;65.10;;;;;;5025314;28;114750;-76
2023/06/11 03:26:57;;;;;;;14.43;12.93;;;17.20;65.00;;;;;;5026186;28;114544;-76
2023/06/11 03:29:24;;;;;;;15.95;14.45;;;17.20;65.00;;;;;;5026052;28;114278;-77
2023/06/11 03:31:56;;;;;;;14.80;13.38;;;17.20;65.10;;;;;;5009079;28;116262;-76
2023/06/11 03:34:24;;;;;;;16.25;14.45;;;17.20;65.10;;;;;;5008258;28;116558;-76
2023/06/11 03:36:53;;;;;;;16.90;15.30;;;17.10;65.20;;;;;;5025963;28;114412;-77
2023/06/11 03:39:20;;;;;;;13.48;12.18;;;17.10;65.30;;;;;;5026211;28;114479;-77
2023/06/11 03:41:50;;;;;;;15.77;14.27;;;17.30;65.50;;;;;;5025092;28;114891;-76
2023/06/11 03:44:19;;;;;;;15.27;13.88;;;17.60;64.90;;;;;;5024338;28;118238;-76
2023/06/11 03:46:47;;;;;;;13.98;12.65;;;17.90;64.00;;;;;;5008501;28;114573;-77
2023/06/11 03:49:14;;;;;;;13.93;12.52;;;18.20;63.40;;;;;;5025440;28;114410;-77
2023/06/11 03:51:42;;;;;;;15.52;14.02;;;18.30;62.70;;;;;;5007795;28;114924;-77
2023/06/11 03:54:09;;;;;;;13.70;12.40;;;18.40;62.40;;;;;;5007399;28;114697;-77
2023/06/11 03:56:37;;;;;;;14.68;13.32;;;18.40;62.30;;;;;;5011813;28;115504;-76
2023/06/11 03:59:05;;;;;;;15.40;13.90;;;18.40;62.10;;;;;;5005312;28;114450;-77
2023/06/11 04:01:33;;;;;;;13.63;12.32;;;18.50;62.10;;;;;;5005434;28;114980;-76
2023/06/11 04:04:00;;;;;;;14.77;13.15;;;18.70;61.90;;;;;;5003640;28;114670;-77
2023/06/11 04:06:39;;;;;;;14.10;12.77;;;18.80;61.20;;;;;;5004892;28;114773;-76
2023/06/11 04:09:07;;;;;;;13.75;12.30;;;18.80;61.00;;;;;;5005254;28;118757;-78
2023/06/11 04:11:35;;;;;;;14.38;13.02;;;18.70;61.10;;;;;;5003475;28;114991;-77
2023/06/11 04:14:02;;;;;;;15.30;13.82;;;18.60;61.20;;;;;;5003394;28;114652;-77
2023/06/11 04:16:29;;;;;;;14.65;13.25;;;18.40;61.40;;;;;;5004703;28;114404;-76
2023/06/11 04:18:57;;;;;;;13.38;12.05;;;18.20;62.10;;;;;;5004621;28;114487;-77
2023/06/11 04:21:24;;;;;;;12.45;11.25;;;18.20;62.50;;;;;;5003740;28;115076;-78
2023/06/11 04:23:52;;;;;;;16.33;14.73;;;18.40;62.20;;;;;;4987599;28;114637;-76
2023/06/11 04:26:23;;;;;;;14.25;12.85;;;18.50;61.80;;;;;;5004873;28;114411;-76
2023/06/11 04:28:52;;;;;;;17.27;15.65;;;18.80;61.60;;;;;;5008436;28;114999;-78
2023/06/11 04:31:26;;;;;;;14.20;12.30;;;18.90;60.90;;;;;;4981738;28;114360;-77
2023/06/11 04:33:56;;;;;;;16.40;14.63;;;18.80;61.00;;;;;;4991885;28;114694;-77
2023/06/11 04:36:24;;;;;;;17.52;15.93;;;18.90;60.80;;;;;;4998089;28;114503;-77
2023/06/11 04:38:54;;;;;;;17.10;15.50;;;18.90;60.40;;;;;;5028675;28;114584;-76
2023/06/11 04:41:26;;;;;;;17.25;15.50;;;18.80;60.70;;;;;;5027623;28;115418;-76
2023/06/11 04:43:54;;;;;;;15.20;13.65;;;18.70;60.80;;;;;;5027300;28;116102;-75
2023/06/11 04:46:22;;;;;;;15.80;14.23;;;18.60;61.30;;;;;;5028073;28;114271;-75
2023/06/11 04:48:50;;;;;;;16.70;15.02;;;18.60;61.40;;;;;;5028414;28;114414;-78
2023/06/11 04:51:20;;;;;;;16.17;14.65;;;18.50;61.50;;;;;;5010538;28;115121;-77
2023/06/11 04:53:52;;;;;;;15.05;13.63;;;18.50;61.70;;;;;;5011347;28;114746;-77
2023/06/11 04:56:21;;;;;;;14.48;13.07;;;18.40;62.00;;;;;;5027953;28;114620;-78
2023/06/11 04:58:49;;;;;;;13.88;12.57;;;18.50;61.80;;;;;;5013656;28;114521;-78
2023/06/11 05:01:16;;;;;;;14.40;12.95;;;18.50;61.70;;;;;;4990829;28;114863;-78
2023/06/11 05:03:43;;;;;;;13.88;12.32;;;18.80;61.50;;;;;;5004274;28;114645;-78
2023/06/11 05:06:21;;;;;;;13.07;11.77;;;19.00;60.80;;;;;;5008550;28;114238;-78
2023/06/11 05:08:52;;;;;;;13.95;12.60;;;19.20;60.20;;;;;;5008393;28;114265;-79
2023/06/11 05:11:21;;;;;;;14.45;13.00;;;19.10;60.00;;;;;;5008314;28;115320;-78
2023/06/11 05:13:48;;;;;;;13.32;11.93;;;18.90;60.10;;;;;;5010891;28;114882;-79
2023/06/11 05:16:21;;;;;;;13.68;12.30;;;18.70;60.60;;;;;;5028466;28;114780;-78
2023/06/11 05:18:50;;;;;;;;;;;18.60;60.80;;;;;;5029030;28;116799;-78
2023/06/11 05:21:17;;;;;;;12.75;11.55;;;18.40;60.90;;;;;;5014576;28;114893;-78
2023/06/11 05:23:44;;;;;;;14.88;12.40;;;18.30;61.40;;;;;;5007120;28;115860;-78
2023/06/11 05:26:13;;;;;;;12.70;11.40;;;18.30;61.30;;;;;;4990467;28;114112;-78
2023/06/11 05:28:44;;;;;;;14.13;12.60;;;18.20;61.60;;;;;;4973966;28;114394;-77
2023/06/11 05:31:12;;;;;;;15.02;10.88;;;18.30;61.50;;;;;;5007741;28;116676;-78
2023/06/11 05:33:43;;;;;;;11.98;10.88;;;18.20;61.40;;;;;;4992184;28;117374;-77
2023/06/11 05:36:11;;;;;;;12.27;10.55;;;18.20;61.70;;;;;;5025846;28;114492;-78
2023/06/11 05:38:39;;;;;;;14.55;11.13;;;18.30;61.60;;;;;;5011151;28;117518;-76
2023/06/11 05:41:07;;;;;;;12.57;11.27;;;18.40;61.20;;;;;;5001882;28;116036;-77
2023/06/11 05:43:35;;;;;;;12.32;11.10;;;18.40;60.90;;;;;;5004480;28;114629;-76
2023/06/11 05:46:03;;;;;;;11.52;10.50;;;18.30;61.10;;;;;;5005610;28;114207;-77
2023/06/11 05:48:47;;;;;;;11.38;10.27;;;18.40;60.80;;;;;;5004197;28;114414;-76
2023/06/11 05:51:15;;;;;;;11.77;10.45;;;18.60;60.70;;;;;;5004970;28;115016;-77
2023/06/11 05:53:42;;;;;;;12.02;10.88;;;18.50;60.40;;;;;;5004836;28;115946;-77
2023/06/11 05:56:10;;;;;;;12.15;10.95;;;18.50;60.50;;;;;;4987833;28;114334;-77
2023/06/11 05:58:38;;;;;;;11.65;10.48;;;18.40;60.30;;;;;;4989101;28;114338;-76
2023/06/11 06:01:06;;;;;;;11.13;10.07;;;18.30;60.80;;;;;;5003880;28;114905;-76
2023/06/11 06:03:37;;;;;;;11.45;10.35;;;18.50;60.70;;;;;;4988102;28;114533;-76
2023/06/11 06:06:05;;;;;;;12.13;11.02;;;18.50;60.60;;;;;;5013214;28;114478;-76
2023/06/11 06:08:32;;;;;;;11.00;9.95;;;18.70;60.30;;;;;;5006314;28;114471;-76
2023/06/11 06:11:00;;;;;;;10.95;9.85;;;18.80;59.80;;;;;;5004430;28;115023;-76
2023/06/11 06:13:27;;;;;;;10.90;9.80;;;19.00;59.20;;;;;;5004337;28;114652;-77
2023/06/11 06:15:57;;;;;;;10.52;9.52;;;19.00;59.10;;;;;;5005133;28;114505;-76
2023/06/11 06:18:28;;;;;;;11.15;10.15;;;18.90;58.60;;;;;;4988357;28;114662;-76
2023/06/11 06:20:57;;;;;;;10.57;9.57;;;18.80;58.30;;;;;;4988406;28;115881;-76
2023/06/11 06:23:24;;;;;;;10.48;9.40;;;18.80;58.80;;;;;;5005466;28;114702;-77
2023/06/11 06:25:59;;;;;;;11.20;10.13;;;18.60;59.50;;;;;;5004777;28;114463;-77
2023/06/11 06:28:26;;;;;;;11.60;10.02;;;18.60;59.50;;;;;;5004931;28;114609;-76
2023/06/11 06:30:53;;;;;;;10.98;9.90;;;18.60;59.50;;;;;;4985085;28;114945;-77
2023/06/11 06:33:21;;;;;;;11.13;9.88;;;18.60;59.80;;;;;;5003919;28;118064;-76
2023/06/11 06:35:48;;;;;;;10.98;9.98;;;18.50;59.70;;;;;;5005388;28;114513;-76
2023/06/11 06:38:15;;;;;;;11.63;10.43;;;18.40;60.30;;;;;;5005723;28;114418;-76
2023/06/11 06:40:43;;;;;;;13.50;10.77;;;18.40;60.10;;;;;;5003535;28;114969;-76
2023/06/11 06:43:11;;;;;;;12.38;10.88;;;18.30;60.00;;;;;;4988318;28;114751;-76
2023/06/11 06:45:40;;;;;;;12.00;10.68;;;18.40;60.00;;;;;;5004714;28;114246;-77
2023/06/11 06:48:21;;;;;;;13.43;11.48;;;18.50;60.00;;;;;;5004156;28;114599;-78
2023/06/11 06:50:50;;;;;;;11.93;10.73;;;18.50;59.80;;;;;;4970039;28;116153;-77
2023/06/11 06:53:17;;;;;;;15.00;11.23;;;18.70;59.80;;;;;;4998315;28;114539;-77
2023/06/11 06:55:45;;;;;;;12.00;10.80;;;18.90;59.20;;;;;;4988650;28;114194;-77
2023/06/11 06:58:13;;;;;;;11.35;10.20;;;19.00;58.70;;;;;;5001234;28;114396;-77
2023/06/11 07:00:41;;;;;;;12.15;10.82;;;19.00;58.90;;;;;;4987278;28;115059;-78
2023/06/11 07:03:12;;;;;;;12.45;10.50;;;19.00;58.30;;;;;;4987847;28;115020;-77
2023/06/11 07:05:41;;;;;;;11.50;10.30;;;18.90;58.40;;;;;;4987652;28;114452;-77
2023/06/11 07:08:10;;;;;;;10.35;9.35;;;18.90;58.50;;;;;;5005217;28;114446;-78
2023/06/11 07:10:40;;;;;;;13.55;10.05;;;18.90;58.20;;;;;;5004430;28;117348;-78
2023/06/11 07:13:10;;;;;;;10.85;9.23;;;18.80;58.30;;;;;;5002268;28;115124;-78
2023/06/11 07:15:37;;;;;;;10.95;9.80;;;18.80;58.70;;;;;;4987167;28;114923;-77
2023/06/11 07:18:05;;;;;;;9.77;8.77;;;18.80;58.90;;;;;;5004244;28;114339;-77
2023/06/11 07:20:32;;;;;;;10.52;9.15;;;18.80;58.30;;;;;;4996133;28;115426;-77
2023/06/11 07:23:00;;;;;;;10.05;9.05;;;18.80;58.30;;;;;;5002997;28;115206;-77
2023/06/11 07:25:30;;;;;;;10.35;9.25;;;18.80;58.20;;;;;;4971324;28;114683;-77
2023/06/11 07:28:00;;;;;;;10.05;9.02;;;18.70;58.00;;;;;;5004282;28;115450;-78
2023/06/11 07:30:29;;;;;;;11.55;9.50;;;18.50;58.50;;;;;;4970808;28;117111;-79
2023/06/11 07:32:58;;;;;;;10.60;9.52;;;18.50;58.60;;;;;;4987239;28;115099;-79
2023/06/11 07:35:26;;;;;;;9.80;8.90;;;18.60;58.80;;;;;;5003959;28;114494;-79
2023/06/11 07:37:53;;;;;;;9.45;8.27;;;18.80;58.50;;;;;;4987862;28;115920;-78
2023/06/11 07:40:20;;;;;;;10.15;9.15;;;18.90;58.00;;;;;;4985363;28;115498;-78
2023/06/11 07:42:51;;;;;;;11.80;10.40;;;19.00;57.40;;;;;;5002945;28;115332;-79
2023/06/11 07:45:18;;;;;;;12.50;10.95;;;19.00;57.20;;;;;;5003643;28;114293;-78
2023/06/11 07:47:50;;;;;;;11.40;10.20;;;19.10;57.10;;;;;;4988238;28;114419;-78
2023/06/11 07:50:17;;;;;;;11.57;10.48;;;19.00;57.40;;;;;;5002864;28;114733;-78
2023/06/11 07:52:45;;;;;;;11.65;10.50;;;19.00;57.30;;;;;;4986239;28;114607;-79
2023/06/11 07:55:21;;;;;;;11.45;10.35;;;18.90;57.80;;;;;;5003070;28;114500;-78
2023/06/11 07:57:48;;;;;;;11.55;10.38;;;18.80;57.90;;;;;;5004177;28;114216;-78
2023/06/11 08:00:18;;;;;;;11.40;9.90;;;18.80;58.10;;;;;;5003814;28;114905;-78
2023/06/11 08:02:47;;;;;;;10.55;9.00;;;18.90;57.90;;;;;;5000873;28;114680;-77
2023/06/11 08:05:21;;;;;;;10.23;9.23;;;18.80;57.90;;;;;;5003331;28;114600;-77
2023/06/11 08:07:49;;;;;;;10.85;9.75;;;18.80;58.10;;;;;;5004957;28;115747;-78
2023/06/11 08:10:16;;;;;;;10.95;9.85;;;18.70;58.20;;;;;;5000857;28;115018;-78
2023/06/11 08:12:43;;;;;;;12.38;10.80;;;18.80;58.40;;;;;;5003987;28;114702;-78
2023/06/11 08:15:10;;;;;;;12.57;9.98;;;18.80;57.90;;;;;;5004562;28;114565;-79
2023/06/11 08:17:38;;;;;;;11.68;10.57;;;18.70;58.20;;;;;;5020632;28;114179;-78
2023/06/11 08:20:07;;;;;;;11.77;10.50;;;18.60;58.00;;;;;;5023699;27;114910;-79
2023/06/11 08:22:34;;;;;;;11.07;9.93;;;18.60;58.20;;;;;;5022994;28;114552;-78
2023/06/11 08:25:02;;;;;;;13.05;9.52;;;18.60;58.40;;;;;;5023230;28;114371;-78
2023/06/11 08:27:29;;;;;;;11.70;9.60;;;18.80;58.30;;;;;;5006968;28;114405;-79
2023/06/11 08:29:56;;;;;;;10.30;8.65;;;18.90;57.00;;;;;;5024296;27;115260;-79
2023/06/11 08:32:24;;;;;;;9.98;9.00;;;18.90;56.70;;;;;;5025543;27;114837;-78
2023/06/11 08:34:52;;;;;;;10.40;9.25;;;18.80;56.40;;;;;;5025572;28;114147;-78
2023/06/11 08:37:19;;;;;;;10.70;9.70;;;18.80;56.50;;;;;;5024856;28;114149;-76
2023/06/11 08:39:47;;;;;;;10.77;9.65;;;18.70;56.50;;;;;;5023939;28;115314;-78
2023/06/11 08:42:14;;;;;;;10.68;9.40;;;18.70;56.60;;;;;;5022215;28;117622;-78
2023/06/11 08:44:41;;;;;;;10.40;9.32;;;18.60;57.10;;;;;;5023826;28;114564;-78
2023/06/11 08:47:10;;;;;;;10.07;8.88;;;18.80;56.90;;;;;;5024691;27;114180;-78
2023/06/11 08:49:39;;;;;;;9.43;8.50;;;19.00;56.50;;;;;;5022061;28;116161;-78
2023/06/11 08:52:07;;;;;;;11.13;8.55;;;19.20;56.10;;;;;;5023109;28;115273;-77
2023/06/11 08:54:34;;;;;;;10.65;8.57;;;19.40;55.50;;;;;;5022577;28;114567;-77
2023/06/11 08:57:02;;;;;;;9.00;8.10;;;19.40;55.10;;;;;;5023222;28;114399;-78
2023/06/11 08:59:29;;;;;;;12.18;7.97;;;19.40;55.20;;;;;;5022482;28;114932;-78
2023/06/11 09:01:58;;;;;;;11.18;8.55;;;19.50;55.50;;;;;;5023410;28;114694;-77
2023/06/11 09:04:25;;;;;;;9.07;8.18;;;19.70;54.90;;;;;;5024215;28;114332;-77
2023/06/11 09:07:00;;;;;;;8.60;7.63;;;19.80;54.50;;;;;;5023177;28;114295;-77
2023/06/11 09:09:27;;;;;;;10.02;7.90;;;19.80;54.10;;;;;;5021994;28;117130;-77
2023/06/11 09:11:55;;;;;;;8.57;7.75;;;19.80;54.20;;;;;;5022856;27;116839;-77
2023/06/11 09:14:22;;;;;;;9.20;8.20;;;19.90;53.90;;;;;;5023840;27;114325;-76
2023/06/11 09:16:49;;;;;;;8.27;7.20;;;20.00;53.40;;;;;;5009783;28;114314;-76
2023/06/11 09:19:17;;;;;;;8.05;7.22;;;20.00;53.60;;;;;;5024981;28;116855;-77
2023/06/11 09:21:49;;;;;;;8.30;7.28;;;20.10;53.50;;;;;;5008516;28;117401;-77
2023/06/11 09:24:18;;;;;;;8.23;7.25;;;20.20;52.40;;;;;;5026017;28;114303;-77
2023/06/11 09:26:57;;;;;;;9.55;7.60;;;20.00;53.00;;;;;;5007898;27;116202;-77
2023/06/11 09:29:26;;;;;;;10.88;6.75;;;20.00;52.80;;;;;;5005108;28;115365;-78
2023/06/11 09:32:07;;;;;;;7.40;6.68;;;20.00;52.40;;;;;;4988337;28;114562;-77
2023/06/11 09:34:57;;;;;;;7.63;6.63;;;19.90;52.40;;;;;;5015661;28;114138;-77
2023/06/11 09:37:25;;;;;;;7.75;6.70;;;19.90;53.00;;;;;;5027280;27;114271;-77
2023/06/11 09:39:52;;;;;;;7.65;6.85;;;19.80;52.10;;;;;;5024944;28;115025;-77
2023/06/11 09:42:24;;;;;;;10.00;7.55;;;19.80;52.80;;;;;;5025939;28;115111;-77
2023/06/11 09:44:58;;;;;;;7.65;6.85;;;19.80;53.20;;;;;;5026129;28;115229;-76
2023/06/11 09:47:28;;;;;;;8.52;6.80;;;19.80;53.10;;;;;;5025103;28;114385;-78
2023/06/11 09:49:58;;;;;;;8.00;7.18;;;19.90;53.10;;;;;;5024460;28;114977;-78
2023/06/11 09:52:28;;;;;;;8.90;7.25;;;20.10;52.30;;;;;;5024353;28;114906;-78
2023/06/11 09:54:56;;;;;;;8.32;6.93;;;20.10;52.20;;;;;;5007961;28;114394;-78
2023/06/11 09:57:24;;;;;;;7.13;6.43;;;20.00;52.20;;;;;;5009950;28;114265;-77
2023/06/11 09:59:52;;;;;;;9.45;7.50;;;19.80;52.10;;;;;;5025169;28;116131;-77
2023/06/11 10:02:19;;;;;;;7.97;6.95;;;19.80;52.10;;;;;;5026156;28;116773;-77
2023/06/11 10:04:50;;;;;;;8.40;7.60;;;19.80;52.60;;;;;;5026788;27;114443;-76
2023/06/11 10:07:17;;;;;;;8.45;7.35;;;19.80;51.70;;;;;;5025800;28;114416;-77
2023/06/11 10:09:46;;;;;;;8.32;7.45;;;19.80;51.80;;;;;;5023186;28;115177;-78
2023/06/11 10:12:15;;;;;;;9.40;7.88;;;19.80;51.70;;;;;;5024727;28;114757;-77
2023/06/11 10:14:51;;;;;;;10.30;7.40;;;19.80;51.60;;;;;;5025729;28;114250;-77
2023/06/11 10:17:20;;;;;;;7.72;6.93;;;19.90;51.30;;;;;;5025186;28;114296;-78
2023/06/11 10:19:48;;;;;;;8.77;7.28;;;19.80;51.00;;;;;;5025675;28;118525;-78
2023/06/11 10:22:31;;;;;;;8.85;7.38;;;19.80;50.70;;;;;;5024591;28;114609;-78
2023/06/11 10:25:03;;;;;;;8.18;6.35;;;19.80;50.90;;;;;;5025310;27;114502;-78
2023/06/11 10:27:38;;;;;;;7.15;6.40;;;19.90;51.60;;;;;;5025440;28;114239;-78
2023/06/11 10:30:06;;;;;;;8.23;6.28;;;20.00;50.30;;;;;;5026330;27;114804;-78
2023/06/11 10:32:34;;;;;;;8.05;6.60;;;20.10;49.50;;;;;;5025250;27;115328;-77
2023/06/11 10:35:04;;;;;;;7.68;6.53;;;20.00;49.40;;;;;;5025786;27;114430;-78
2023/06/11 10:37:39;;;;;;;7.13;6.43;;;20.00;49.90;;;;;;5025965;28;114230;-77
2023/06/11 10:40:08;;;;;;;7.65;6.53;;;20.00;50.50;;;;;;4988145;28;115517;-77
2023/06/11 10:42:40;;;;;;;7.68;6.85;;;20.30;50.90;;;;;;4988643;28;117970;-78
2023/06/11 10:45:09;;;;;;;7.50;6.65;;;20.50;50.00;;;;;;5005577;28;114172;-79
2023/06/11 10:47:49;;;;;;;8.60;6.38;;;20.50;49.70;;;;;;5006397;28;117364;-76
2023/06/11 10:50:24;;;;;;;7.05;6.35;;;20.50;48.90;;;;;;5003899;28;114908;-78
2023/06/11 10:52:55;;;;;;;7.18;6.47;;;20.40;48.60;;;;;;4988844;28;116761;-78
2023/06/11 10:55:25;;;;;;;7.47;6.53;;;20.30;48.80;;;;;;5004754;28;114253;-78
2023/06/11 10:57:53;;;;;;;8.80;6.82;;;20.30;49.30;;;;;;5005315;28;114241;-77
2023/06/11 11:00:21;;;;;;;7.03;6.25;;;20.40;49.30;;;;;;5004185;28;114604;-77
2023/06/11 11:02:49;;;;;;;7.47;6.43;;;20.40;49.40;;;;;;5000994;28;114711;-77
2023/06/11 11:05:16;;;;;;;10.10;6.97;;;20.40;49.60;;;;;;5005066;28;114118;-78
2023/06/11 11:07:45;;;;;;;7.90;6.75;;;20.60;49.10;;;;;;4988656;28;114611;-77
2023/06/11 11:10:18;;;;;;;7.35;6.65;;;20.60;49.00;;;;;;4987661;28;114955;-77
2023/06/11 11:12:46;;;;;;;7.80;6.05;;;20.60;48.60;;;;;;5004153;28;114590;-78
2023/06/11 11:15:14;;;;;;;7.53;5.93;;;20.70;48.70;;;;;;5000738;28;114393;-78
2023/06/11 11:17:42;;;;;;;6.80;5.90;;;20.80;48.70;;;;;;5004906;28;114166;-78
2023/06/11 11:20:10;;;;;;;7.40;6.07;;;20.80;48.00;;;;;;5004061;28;114623;-77
2023/06/11 11:22:37;;;;;;;7.13;5.63;;;20.90;47.50;;;;;;5002456;28;115046;-78
2023/06/11 11:25:06;;;;;;;7.30;5.70;;;20.90;47.60;;;;;;5009902;28;114222;-77
2023/06/11 11:27:34;;;;;;;6.50;5.80;;;20.90;47.90;;;;;;5026036;28;114143;-77
2023/06/11 11:30:02;;;;;;;6.03;5.43;;;20.90;47.60;;;;;;5022987;28;115123;-77
2023/06/11 11:32:32;;;;;;;6.18;5.57;;;20.90;47.50;;;;;;5005405;28;117381;-76
2023/06/11 11:35:02;;;;;;;7.97;5.60;;;20.90;46.40;;;;;;5023539;28;114635;-77
2023/06/11 11:37:33;;;;;;;5.95;5.30;;;20.90;46.70;;;;;;5021075;27;115091;-77
2023/06/11 11:40:06;;;;;;;6.15;5.38;;;20.90;47.20;;;;;;5023665;28;114963;-77
2023/06/11 11:42:46;;;;;;;6.43;5.35;;;20.80;47.00;;;;;;5022948;28;117071;-77
2023/06/11 11:45:15;;;;;;;7.13;5.53;;;20.80;46.70;;;;;;5023388;28;114340;-76
2023/06/11 11:47:50;;;;;;;5.80;5.03;;;20.70;47.40;;;;;;5024649;27;114552;-77
2023/06/11 11:50:25;;;;;;;5.90;5.20;;;20.80;47.10;;;;;;5022535;28;114919;-77
2023/06/11 11:53:08;;;;;;;6.28;4.90;;;20.80;47.30;;;;;;5023943;28;115298;-77
2023/06/11 11:55:38;;;;;;;5.95;5.10;;;20.80;47.40;;;;;;5023343;28;114452;-76
2023/06/11 11:58:19;;;;;;;6.32;4.93;;;20.80;47.30;;;;;;5023841;28;114236;-78
2023/06/11 12:00:50;;;;;;;6.20;5.03;;;20.80;47.20;;;;;;5022026;28;115007;-77
2023/06/11 12:03:18;;;;;;;7.32;5.25;;;20.80;47.60;;;;;;5023923;28;114690;-76
2023/06/11 12:05:59;;;;;;;6.65;5.32;;;20.90;47.40;;;;;;5024866;28;114308;-76
2023/06/11 12:08:28;;;;;;;5.55;4.90;;;21.10;47.30;;;;;;5024511;28;114395;-76
2023/06/11 12:10:57;;;;;;;6.90;4.93;;;21.10;47.30;;;;;;5021767;28;114867;-77
2023/06/11 12:13:25;;;;;;;6.32;4.80;;;21.20;46.30;;;;;;5024071;28;114704;-77
2023/06/11 12:15:52;;;;;;;6.20;4.88;;;21.30;45.40;;;;;;5024674;28;114497;-77
2023/06/11 12:18:20;;;;;;;6.35;5.30;;;21.30;45.80;;;;;;5024914;27;114390;-78
2023/06/11 12:20:47;;;;;;;8.25;5.07;;;21.30;45.70;;;;;;5018924;27;115122;-77
2023/06/11 12:23:15;;;;;;;7.28;4.72;;;21.30;45.80;;;;;;5003191;28;114777;-77
2023/06/11 12:25:42;;;;;;;10.23;4.85;;;21.30;45.70;;;;;;5003269;28;114441;-78
2023/06/11 12:28:09;;;;;;;5.97;4.40;;;21.20;46.10;;;;;;5003500;28;114963;-78
2023/06/11 12:30:36;;;;;;;6.10;5.25;;;21.20;46.00;;;;;;5003081;28;115604;-80
2023/06/11 12:33:05;;;;;;;5.88;4.78;;;21.20;46.20;;;;;;5003221;28;114910;-76
2023/06/11 12:35:32;;;;;;;7.60;4.57;;;21.30;46.00;;;;;;5003034;28;114279;-77